Time;durP1;ratioP1;P1;durP2;ratioP2;P2;SDS_P1;SDS_P2;PMS_P1;PMS_P2;Temp;Humidity;BMP_temperature;BMP_pressure;BME280_temperature;BME280_humidity;BME280_pressure;Samples;Min_cycle;Max_cycle;Signal;HPM_P1;HPM_P2
2022/06/01 00:00:14;;;;;;;14.90;5.82;;;;;;;;;;5056245;28;20029;-62
2022/06/01 00:02:41;;;;;;;13.23;5.60;;;;;;;;;;5057132;28;20024;-62
2022/06/01 00:05:08;;;;;;;18.90;5.75;;;;;;;;;;5055983;28;20029;-63
2022/06/01 00:07:35;;;;;;;14.70;5.95;;;;;;;;;;5057466;28;20028;-61
2022/06/01 00:10:02;;;;;;;16.60;6.22;;;;;;;;;;5056486;28;20029;-62
2022/06/01 00:12:29;;;;;;;13.77;5.38;;;;;;;;;;5038511;28;20036;-62
2022/06/01 00:14:56;;;;;;;21.58;6.43;;;;;;;;;;5056218;28;20102;-62
2022/06/01 00:17:24;;;;;;;17.33;5.47;;;;;;;;;;5055765;28;20047;-61
2022/06/01 00:19:51;;;;;;;23.85;6.63;;;;;;;;;;5056270;28;20048;-62
2022/06/01 00:22:19;;;;;;;27.75;6.30;;;;;;;;;;5037593;28;20429;-62
2022/06/01 00:24:47;;;;;;;24.40;7.15;;;;;;;;;;5055637;28;20028;-62
2022/06/01 00:27:15;;;;;;;32.50;7.95;;;;;;;;;;5052770;28;20029;-61
2022/06/01 00:29:42;;;;;;;23.48;7.60;;;;;;;;;;5054965;28;20027;-62
2022/06/01 00:32:14;;;;;;;34.65;7.53;;;;;;;;;;5055316;28;20075;-63
2022/06/01 00:34:42;;;;;;;21.83;7.03;;;;;;;;;;5055460;28;20040;-62
2022/06/01 00:37:09;;;;;;;30.17;6.80;;;;;;;;;;5055351;28;20040;-62
2022/06/01 00:39:37;;;;;;;28.95;6.93;;;;;;;;;;5055769;28;20028;-63
2022/06/01 00:42:15;;;;;;;34.00;7.75;;;;;;;;;;5056331;28;20024;-62
2022/06/01 00:44:42;;;;;;;32.05;7.65;;;;;;;;;;5056571;28;20021;-63
2022/06/01 00:47:10;;;;;;;43.20;10.00;;;;;;;;;;5056948;28;20029;-63
2022/06/01 00:49:39;;;;;;;42.13;10.73;;;;;;;;;;5056241;28;20076;-63
2022/06/01 00:52:06;;;;;;;38.00;12.32;;;;;;;;;;5053367;28;20044;-63
2022/06/01 00:54:33;;;;;;;67.60;17.48;;;;;;;;;;5053315;28;20410;-64
2022/06/01 00:57:05;;;;;;;84.43;23.10;;;;;;;;;;5052691;28;20536;-64
2022/06/01 00:59:34;;;;;;;97.90;24.27;;;;;;;;;;5052783;28;20120;-64
2022/06/01 01:02:04;;;;;;;115.03;28.83;;;;;;;;;;5052992;28;20398;-63
2022/06/01 01:04:33;;;;;;;115.40;29.55;;;;;;;;;;5053657;28;20493;-63
2022/06/01 01:07:06;;;;;;;107.20;31.27;;;;;;;;;;5055007;28;20067;-64
2022/06/01 01:09:37;;;;;;;103.65;30.70;;;;;;;;;;5053923;28;20024;-63
2022/06/01 01:12:06;;;;;;;106.55;30.75;;;;;;;;;;5053300;28;20061;-63
2022/06/01 01:14:36;;;;;;;105.93;30.55;;;;;;;;;;5053190;28;20086;-63
2022/06/01 01:17:04;;;;;;;101.60;30.92;;;;;;;;;;5053584;28;20128;-63
2022/06/01 01:19:34;;;;;;;99.32;29.92;;;;;;;;;;5052856;28;20376;-63
2022/06/01 01:22:20;;;;;;;105.90;29.27;;;;;;;;;;5053208;28;20120;-63
2022/06/01 01:25:05;;;;;;;95.38;29.95;;;;;;;;;;5051862;28;20021;-63
2022/06/01 01:27:32;;;;;;;86.80;28.05;;;;;;;;;;5052264;28;20124;-63
2022/06/01 01:29:59;;;;;;;108.88;28.30;;;;;;;;;;5035112;28;20376;-61
2022/06/01 01:32:26;;;;;;;87.78;28.15;;;;;;;;;;5052780;28;20136;-62
2022/06/01 01:34:53;;;;;;;91.45;27.90;;;;;;;;;;5034860;28;20033;-62
2022/06/01 01:37:26;;;;;;;96.82;27.85;;;;;;;;;;5052494;28;20208;-62
2022/06/01 01:39:54;;;;;;;92.00;27.90;;;;;;;;;;5052564;28;20063;-61
2022/06/01 01:42:21;;;;;;;78.40;24.75;;;;;;;;;;5053203;28;20024;-61
2022/06/01 01:44:48;;;;;;;76.43;24.48;;;;;;;;;;5053297;28;20051;-61
2022/06/01 01:47:15;;;;;;;68.43;23.27;;;;;;;;;;5046279;28;20383;-61
2022/06/01 01:49:42;;;;;;;76.45;22.98;;;;;;;;;;5052958;28;20029;-61
2022/06/01 01:52:14;;;;;;;68.53;20.80;;;;;;;;;;5052262;28;20052;-61
2022/06/01 01:54:52;;;;;;;73.63;22.90;;;;;;;;;;5053250;28;20075;-59
2022/06/01 01:57:29;;;;;;;74.93;21.70;;;;;;;;;;5052055;28;20025;-60
2022/06/01 02:00:17;;;;;;;64.95;20.75;;;;;;;;;;5052352;28;20033;-60
2022/06/01 02:02:50;;;;;;;66.55;20.73;;;;;;;;;;5042041;28;20071;-57
2022/06/01 02:06:05;;;;;;;62.67;19.25;;;;;;;;;;5051963;28;20025;-60
2022/06/01 02:08:32;;;;;;;58.08;18.60;;;;;;;;;;5045817;28;20443;-60
2022/06/01 02:13:54;;;;;;;54.22;18.27;;;;;;;;;;5052285;28;20174;-61
2022/06/01 02:16:22;;;;;;;55.10;17.33;;;;;;;;;;5051681;28;20039;-60
2022/06/01 02:18:51;;;;;;;53.65;17.33;;;;;;;;;;5050992;28;20045;-61
2022/06/01 02:21:24;;;;;;;54.33;16.60;;;;;;;;;;5052766;28;20086;-60
2022/06/01 02:23:51;;;;;;;55.33;17.00;;;;;;;;;;5051357;28;20120;-61
2022/06/01 02:26:18;;;;;;;51.35;16.92;;;;;;;;;;5051995;28;20040;-60
2022/06/01 02:28:46;;;;;;;44.70;15.85;;;;;;;;;;5051941;28;20071;-60
2022/06/01 02:31:15;;;;;;;42.42;15.43;;;;;;;;;;5052081;28;20037;-60
2022/06/01 02:33:43;;;;;;;53.97;16.75;;;;;;;;;;5052394;28;20065;-60
2022/06/01 02:36:11;;;;;;;42.17;15.75;;;;;;;;;;5052923;28;20390;-61
2022/06/01 02:38:43;;;;;;;46.60;14.65;;;;;;;;;;5050577;28;20037;-62
2022/06/01 02:42:25;;;;;;;48.67;15.82;;;;;;;;;;5034568;28;20063;-60
2022/06/01 02:43:58;;;;;;;46.28;15.15;;;;;;;;;;5051776;28;20530;-61
2022/06/01 02:46:25;;;;;;;46.83;16.08;;;;;;;;;;5052649;28;20483;-61
2022/06/01 02:48:52;;;;;;;44.08;15.05;;;;;;;;;;5052712;28;20055;-61
2022/06/01 02:51:19;;;;;;;41.38;13.43;;;;;;;;;;5051929;28;20060;-61
2022/06/01 02:53:47;;;;;;;42.80;14.32;;;;;;;;;;5052394;28;20680;-61
2022/06/01 02:56:14;;;;;;;43.10;14.63;;;;;;;;;;5052152;28;20479;-61
2022/06/01 02:58:41;;;;;;;39.20;13.50;;;;;;;;;;5052118;28;20033;-61
2022/06/01 03:01:08;;;;;;;39.88;13.82;;;;;;;;;;5052250;28;20056;-61
2022/06/01 03:03:36;;;;;;;42.90;13.45;;;;;;;;;;5052280;28;20498;-61
2022/06/01 03:06:03;;;;;;;42.72;12.88;;;;;;;;;;5052120;28;20021;-61
2022/06/01 03:08:30;;;;;;;39.53;13.45;;;;;;;;;;5052103;28;20029;-61
2022/06/01 03:10:57;;;;;;;41.35;12.73;;;;;;;;;;5051904;28;20025;-61
2022/06/01 03:13:25;;;;;;;45.90;13.52;;;;;;;;;;5052026;28;20025;-61
2022/06/01 03:15:52;;;;;;;36.88;12.32;;;;;;;;;;5051696;28;20044;-61
2022/06/01 03:18:20;;;;;;;36.30;13.23;;;;;;;;;;5051479;28;20041;-61
2022/06/01 03:20:47;;;;;;;31.02;11.68;;;;;;;;;;5052190;28;20073;-61
2022/06/01 03:23:14;;;;;;;35.05;11.52;;;;;;;;;;5051785;28;20028;-61
2022/06/01 03:25:41;;;;;;;31.80;11.85;;;;;;;;;;5033932;28;20029;-61
2022/06/01 03:28:09;;;;;;;34.55;11.40;;;;;;;;;;5052048;28;20029;-61
2022/06/01 03:30:36;;;;;;;36.95;12.80;;;;;;;;;;5051202;28;20064;-61
2022/06/01 03:33:03;;;;;;;35.78;11.93;;;;;;;;;;5051417;28;20610;-61
2022/06/01 03:35:31;;;;;;;31.60;11.45;;;;;;;;;;5051298;28;20052;-61
2022/06/01 03:37:59;;;;;;;32.55;12.02;;;;;;;;;;5052089;28;20031;-61
2022/06/01 03:40:27;;;;;;;31.60;11.38;;;;;;;;;;5050997;28;20108;-61
2022/06/01 03:42:54;;;;;;;33.67;10.68;;;;;;;;;;5051382;28;20025;-61
2022/06/01 03:48:08;;;;;;;28.15;10.38;;;;;;;;;;5052072;28;20083;-61
2022/06/01 03:50:36;;;;;;;32.78;10.40;;;;;;;;;;5050663;28;20119;-61
2022/06/01 03:53:03;;;;;;;26.60;9.65;;;;;;;;;;5052145;28;20087;-61
2022/06/01 03:55:31;;;;;;;27.83;10.50;;;;;;;;;;5051592;28;20520;-61
2022/06/01 03:57:58;;;;;;;27.70;10.80;;;;;;;;;;5051183;28;20037;-61
2022/06/01 04:00:26;;;;;;;24.67;10.05;;;;;;;;;;5051821;28;20025;-61
2022/06/01 04:02:53;;;;;;;23.98;9.77;;;;;;;;;;5051454;28;20021;-61
2022/06/01 04:05:21;;;;;;;25.48;9.80;;;;;;;;;;5051495;28;20025;-61
2022/06/01 04:07:48;;;;;;;28.73;9.98;;;;;;;;;;5051556;28;20032;-61
2022/06/01 04:10:16;;;;;;;30.20;9.65;;;;;;;;;;5051333;28;20025;-61
2022/06/01 04:12:43;;;;;;;22.90;8.82;;;;;;;;;;5051054;28;20032;-61
2022/06/01 04:15:10;;;;;;;29.75;9.68;;;;;;;;;;5051932;28;20021;-61
2022/06/01 04:17:38;;;;;;;29.17;10.05;;;;;;;;;;5050775;28;20506;-61
2022/06/01 04:20:05;;;;;;;19.83;8.20;;;;;;;;;;5051697;28;20037;-61
2022/06/01 04:22:32;;;;;;;24.30;9.20;;;;;;;;;;5051550;28;20028;-61
2022/06/01 04:25:00;;;;;;;25.02;8.60;;;;;;;;;;5050998;28;20029;-61
2022/06/01 04:27:27;;;;;;;23.17;8.68;;;;;;;;;;5054416;28;20029;-61
2022/06/01 04:29:54;;;;;;;22.30;8.45;;;;;;;;;;5054469;28;20017;-61
2022/06/01 04:32:34;;;;;;;24.73;8.55;;;;;;;;;;5036639;28;20115;-61
2022/06/01 04:35:01;;;;;;;22.05;8.30;;;;;;;;;;5055065;28;20488;-61
2022/06/01 04:37:28;;;;;;;22.25;8.05;;;;;;;;;;5054178;28;20393;-61
2022/06/01 04:39:55;;;;;;;19.02;8.43;;;;;;;;;;5054677;28;20053;-61
2022/06/01 04:42:23;;;;;;;23.80;8.35;;;;;;;;;;5054624;28;20033;-61
2022/06/01 04:44:50;;;;;;;22.83;8.73;;;;;;;;;;5054880;28;20100;-61
2022/06/01 04:47:18;;;;;;;22.58;7.90;;;;;;;;;;5055092;28;20025;-61
2022/06/01 04:49:49;;;;;;;21.77;8.23;;;;;;;;;;5054175;28;20036;-61
2022/06/01 04:52:16;;;;;;;20.98;7.60;;;;;;;;;;5055075;28;20079;-61
2022/06/01 04:54:43;;;;;;;21.92;8.60;;;;;;;;;;5053876;28;20512;-61
2022/06/01 04:57:10;;;;;;;21.27;7.47;;;;;;;;;;5054594;28;20032;-61
2022/06/01 04:59:37;;;;;;;19.52;7.65;;;;;;;;;;5054078;28;20057;-61
2022/06/01 05:02:05;;;;;;;17.00;7.47;;;;;;;;;;5054469;28;20027;-61
2022/06/01 05:04:32;;;;;;;18.92;7.43;;;;;;;;;;5053865;28;20037;-61
2022/06/01 05:07:00;;;;;;;19.25;7.78;;;;;;;;;;5054688;28;20017;-61
2022/06/01 05:09:27;;;;;;;18.67;7.65;;;;;;;;;;5054332;28;20036;-61
2022/06/01 05:11:54;;;;;;;19.27;7.30;;;;;;;;;;5035934;28;20025;-61
2022/06/01 05:14:21;;;;;;;22.98;7.55;;;;;;;;;;5054536;28;20108;-61
2022/06/01 05:16:48;;;;;;;17.05;6.80;;;;;;;;;;5053866;28;20087;-61
2022/06/01 05:19:15;;;;;;;18.63;7.32;;;;;;;;;;5054255;28;20029;-61
2022/06/01 05:21:42;;;;;;;21.00;6.70;;;;;;;;;;5054515;28;20040;-61
2022/06/01 05:24:09;;;;;;;14.15;6.88;;;;;;;;;;5053613;28;20159;-61
2022/06/01 05:26:36;;;;;;;14.52;6.70;;;;;;;;;;5054463;28;20368;-61
2022/06/01 05:29:03;;;;;;;17.70;6.68;;;;;;;;;;5053281;28;20029;-61
2022/06/01 05:31:30;;;;;;;15.90;6.22;;;;;;;;;;5054364;28;20040;-61
2022/06/01 05:33:57;;;;;;;12.52;6.15;;;;;;;;;;5053860;28;20047;-61
2022/06/01 05:36:24;;;;;;;15.07;5.75;;;;;;;;;;5053404;28;20033;-61
2022/06/01 05:38:51;;;;;;;14.40;5.63;;;;;;;;;;5053849;28;20104;-62
2022/06/01 05:41:18;;;;;;;14.02;5.57;;;;;;;;;;5053026;28;20394;-61
2022/06/01 05:43:47;;;;;;;19.30;6.82;;;;;;;;;;5054026;28;20059;-61
2022/06/01 05:46:14;;;;;;;13.77;6.22;;;;;;;;;;5053481;28;20466;-61
2022/06/01 05:48:41;;;;;;;19.65;6.95;;;;;;;;;;5053787;28;20025;-61
2022/06/01 05:51:08;;;;;;;12.82;5.63;;;;;;;;;;5053401;28;20021;-62
2022/06/01 05:53:35;;;;;;;14.35;6.50;;;;;;;;;;5053484;28;20091;-62
2022/06/01 05:56:02;;;;;;;13.18;5.93;;;;;;;;;;5053659;28;20482;-62
2022/06/01 05:58:30;;;;;;;11.93;5.30;;;;;;;;;;5035282;28;20033;-62
2022/06/01 06:01:01;;;;;;;13.02;5.53;;;;;;;;;;5053307;28;20072;-62
2022/06/01 06:03:28;;;;;;;14.25;6.35;;;;;;;;;;5052805;28;20426;-63
2022/06/01 06:06:16;;;;;;;13.65;5.72;;;;;;;;;;5035351;28;20117;-63
2022/06/01 06:08:53;;;;;;;13.23;5.28;;;;;;;;;;5053517;28;20112;-62
2022/06/01 06:11:20;;;;;;;13.95;5.28;;;;;;;;;;5052777;28;20021;-62
2022/06/01 06:13:47;;;;;;;13.60;5.60;;;;;;;;;;5052536;28;20107;-62
2022/06/01 06:16:15;;;;;;;12.82;5.65;;;;;;;;;;5053264;28;20021;-62
2022/06/01 06:18:42;;;;;;;12.80;5.07;;;;;;;;;;5052815;28;20455;-62
2022/06/01 06:21:10;;;;;;;13.52;5.72;;;;;;;;;;5053058;28;20036;-62
2022/06/01 06:23:37;;;;;;;10.77;4.90;;;;;;;;;;5053001;28;20025;-62
2022/06/01 06:26:04;;;;;;;11.18;5.10;;;;;;;;;;5052770;28;20025;-62
2022/06/01 06:28:31;;;;;;;10.88;4.95;;;;;;;;;;5052681;28;20025;-62
2022/06/01 06:30:58;;;;;;;11.60;5.13;;;;;;;;;;5034692;28;20029;-62
2022/06/01 06:33:25;;;;;;;10.63;4.72;;;;;;;;;;5052423;28;20082;-62
2022/06/01 06:36:03;;;;;;;9.77;4.30;;;;;;;;;;5052156;28;20097;-62
2022/06/01 06:38:31;;;;;;;10.65;4.70;;;;;;;;;;5052995;28;20490;-62
2022/06/01 06:40:59;;;;;;;9.55;4.45;;;;;;;;;;5052388;28;20687;-62
2022/06/01 06:43:27;;;;;;;12.20;5.15;;;;;;;;;;5052857;28;20032;-62
2022/06/01 06:45:59;;;;;;;12.50;4.80;;;;;;;;;;5052477;28;20026;-62
2022/06/01 06:48:26;;;;;;;10.35;4.10;;;;;;;;;;5052067;28;20119;-62
2022/06/01 06:50:53;;;;;;;9.98;4.50;;;;;;;;;;5034346;28;20033;-62
2022/06/01 06:53:21;;;;;;;9.80;4.25;;;;;;;;;;5052305;28;20037;-62
2022/06/01 06:55:48;;;;;;;10.30;4.22;;;;;;;;;;5052273;28;20426;-62
2022/06/01 06:58:16;;;;;;;10.13;3.85;;;;;;;;;;5052336;28;20028;-62
2022/06/01 07:00:43;;;;;;;7.22;3.78;;;;;;;;;;5052125;28;20071;-62
2022/06/01 07:03:10;;;;;;;9.98;4.13;;;;;;;;;;5052025;28;20037;-62
2022/06/01 07:08:23;;;;;;;7.57;3.65;;;;;;;;;;5032779;28;20446;-61
2022/06/01 07:10:50;;;;;;;7.47;3.75;;;;;;;;;;5013834;28;20495;-61
2022/06/01 07:13:17;;;;;;;8.48;3.95;;;;;;;;;;5032449;28;20021;-61
2022/06/01 07:15:44;;;;;;;8.07;3.78;;;;;;;;;;5032114;28;20025;-61
2022/06/01 07:18:11;;;;;;;8.68;3.42;;;;;;;;;;5032028;28;20068;-61
2022/06/01 07:20:38;;;;;;;6.03;2.90;;;;;;;;;;5032205;28;20403;-61
2022/06/01 07:23:05;;;;;;;8.40;3.38;;;;;;;;;;5031620;28;20017;-61
2022/06/01 07:25:32;;;;;;;6.05;3.10;;;;;;;;;;5032243;28;20112;-61
2022/06/01 07:27:59;;;;;;;6.07;3.15;;;;;;;;;;5031931;28;20033;-61
2022/06/01 07:30:26;;;;;;;9.23;3.25;;;;;;;;;;5031654;28;20395;-61
2022/06/01 07:32:53;;;;;;;7.53;3.15;;;;;;;;;;5032295;28;20150;-61
2022/06/01 07:35:20;;;;;;;6.75;3.30;;;;;;;;;;5031944;28;20071;-61
2022/06/01 07:43:20;;;;;;;6.97;3.28;;;;;;;;;;5032203;28;20076;-61
2022/06/01 07:45:48;;;;;;;7.47;3.10;;;;;;;;;;5031834;28;20109;-61
2022/06/01 07:48:17;;;;;;;8.25;2.92;;;;;;;;;;5031232;28;20032;-61
2022/06/01 07:50:45;;;;;;;7.85;3.08;;;;;;;;;;5032000;28;20033;-61
2022/06/01 07:53:12;;;;;;;6.80;3.28;;;;;;;;;;5031557;28;20087;-61
2022/06/01 07:55:41;;;;;;;7.75;3.15;;;;;;;;;;5031868;28;20109;-61
2022/06/01 07:58:09;;;;;;;7.40;3.10;;;;;;;;;;5032052;28;20562;-61
2022/06/01 08:00:37;;;;;;;11.20;3.58;;;;;;;;;;5177640;22;20049;-52
2022/06/01 08:03:04;;;;;;;8.32;2.80;;;;;;;;;;5055099;28;20068;-52
2022/06/01 08:05:31;;;;;;;4.97;2.55;;;;;;;;;;5055559;28;20129;-49
2022/06/01 08:07:58;;;;;;;5.50;2.72;;;;;;;;;;5055214;28;20040;-52
2022/06/01 08:10:25;;;;;;;5.47;2.60;;;;;;;;;;5054994;28;20064;-55
2022/06/01 08:13:07;;;;;;;5.57;2.70;;;;;;;;;;5055546;28;20021;-49
2022/06/01 08:15:45;;;;;;;6.18;2.72;;;;;;;;;;5054621;28;20382;-53
2022/06/01 08:18:14;;;;;;;5.00;2.53;;;;;;;;;;5055313;28;20079;-53
2022/06/01 08:20:42;;;;;;;6.50;2.90;;;;;;;;;;5055033;28;20021;-52
2022/06/01 08:23:09;;;;;;;5.85;2.85;;;;;;;;;;5054713;28;20025;-46
2022/06/01 08:25:36;;;;;;;6.68;2.60;;;;;;;;;;5054571;28;20025;-53
2022/06/01 08:28:04;;;;;;;7.18;2.83;;;;;;;;;;5054890;28;20021;-52
2022/06/01 08:30:33;;;;;;;6.47;2.75;;;;;;;;;;5054272;28;20615;-48
2022/06/01 08:33:00;;;;;;;7.00;2.97;;;;;;;;;;5054232;28;20025;-54
2022/06/01 08:35:32;;;;;;;6.50;2.70;;;;;;;;;;5054700;28;20021;-50
2022/06/01 08:37:59;;;;;;;6.22;2.80;;;;;;;;;;5054448;28;20577;-51
2022/06/01 08:40:29;;;;;;;5.85;2.40;;;;;;;;;;5053810;28;20108;-53
2022/06/01 08:42:59;;;;;;;6.68;2.40;;;;;;;;;;5054441;28;20501;-51
2022/06/01 08:45:27;;;;;;;6.65;2.50;;;;;;;;;;5054208;28;20021;-49
2022/06/01 08:47:54;;;;;;;6.38;2.58;;;;;;;;;;5053926;28;20052;-49
2022/06/01 08:50:30;;;;;;;5.72;2.80;;;;;;;;;;5054035;28;20024;-50
2022/06/01 08:53:03;;;;;;;6.88;2.53;;;;;;;;;;5054454;28;20017;-50
2022/06/01 08:55:38;;;;;;;6.05;2.58;;;;;;;;;;5053691;28;20029;-51
2022/06/01 08:58:12;;;;;;;5.55;2.47;;;;;;;;;;5053307;28;20114;-54
2022/06/01 09:00:43;;;;;;;8.35;2.78;;;;;;;;;;5054378;28;20076;-49
2022/06/01 09:03:22;;;;;;;5.57;2.37;;;;;;;;;;5054183;28;20028;-54
2022/06/01 09:05:52;;;;;;;7.40;2.72;;;;;;;;;;5054555;28;20256;-53
2022/06/01 09:08:25;;;;;;;6.80;2.42;;;;;;;;;;5054035;28;20047;-50
2022/06/01 09:10:58;;;;;;;7.38;2.70;;;;;;;;;;5054607;28;20394;-53
2022/06/01 09:13:27;;;;;;;4.65;2.55;;;;;;;;;;5053006;28;20028;-49
2022/06/01 09:15:54;;;;;;;5.88;2.70;;;;;;;;;;5054417;28;20040;-52
2022/06/01 09:18:23;;;;;;;5.70;2.33;;;;;;;;;;5054212;28;20040;-54
2022/06/01 09:23:36;;;;;;;7.35;2.50;;;;;;;;;;5053633;28;20406;-51
2022/06/01 09:26:05;;;;;;;7.18;2.28;;;;;;;;;;5054504;28;20021;-46
2022/06/01 09:28:36;;;;;;;4.05;2.35;;;;;;;;;;5053259;28;20037;-48
2022/06/01 09:31:18;;;;;;;6.25;2.53;;;;;;;;;;5054149;28;20400;-50
2022/06/01 09:33:45;;;;;;;5.35;2.35;;;;;;;;;;5054239;28;20027;-53
2022/06/01 09:36:12;;;;;;;5.72;2.70;;;;;;;;;;5053733;28;20029;-49
2022/06/01 09:38:54;;;;;;;4.38;2.17;;;;;;;;;;5052169;28;20025;-54
2022/06/01 09:41:24;;;;;;;6.32;2.28;;;;;;;;;;5053211;28;20025;-51
2022/06/01 09:43:54;;;;;;;8.27;2.17;;;;;;;;;;5053729;28;20029;-52
2022/06/01 09:46:32;;;;;;;7.82;2.05;;;;;;;;;;5052854;28;20163;-54
2022/06/01 09:49:00;;;;;;;21.70;2.63;;;;;;;;;;5052641;28;20120;-50
2022/06/01 09:51:27;;;;;;;8.05;2.03;;;;;;;;;;5053991;28;20643;-49
2022/06/01 09:54:08;;;;;;;5.93;2.33;;;;;;;;;;5053842;28;20044;-51
2022/06/01 09:56:40;;;;;;;6.75;2.25;;;;;;;;;;5053166;28;20037;-50
2022/06/01 10:07:40;;;;;;;9.43;2.15;;;;;;;;;;5053396;28;20135;-52
2022/06/01 10:10:07;;;;;;;11.95;2.20;;;;;;;;;;5052946;28;20037;-47
2022/06/01 10:12:41;;;;;;;9.77;2.25;;;;;;;;;;5052941;28;20013;-48
2022/06/01 10:15:28;;;;;;;6.25;2.35;;;;;;;;;;5053191;28;20052;-51
2022/06/01 10:18:01;;;;;;;8.95;2.50;;;;;;;;;;5039485;28;20048;-48
2022/06/01 10:20:33;;;;;;;16.33;2.50;;;;;;;;;;5053142;28;20045;-52
2022/06/01 10:23:00;;;;;;;12.07;2.67;;;;;;;;;;5053603;28;20505;-51
2022/06/01 10:25:38;;;;;;;8.52;2.50;;;;;;;;;;5053707;28;20017;-50
2022/06/01 10:28:12;;;;;;;15.18;3.05;;;;;;;;;;5053042;28;20033;-50
2022/06/01 10:30:41;;;;;;;12.45;2.30;;;;;;;;;;5053004;28;20501;-52
2022/06/01 10:33:10;;;;;;;11.60;2.60;;;;;;;;;;5052799;28;20025;-53
2022/06/01 10:35:44;;;;;;;9.63;2.42;;;;;;;;;;5052630;28;20025;-50
2022/06/01 10:38:28;;;;;;;13.48;2.60;;;;;;;;;;5052996;28;20029;-50
2022/06/01 10:41:03;;;;;;;9.55;2.20;;;;;;;;;;5052229;28;20463;-51
2022/06/01 10:43:39;;;;;;;15.07;2.85;;;;;;;;;;5052709;28;20029;-52
2022/06/01 10:46:26;;;;;;;10.95;2.42;;;;;;;;;;5052261;28;20025;-49
2022/06/01 10:49:08;;;;;;;13.57;2.60;;;;;;;;;;5052741;28;20475;-48
2022/06/01 10:51:35;;;;;;;11.52;2.80;;;;;;;;;;5051965;28;20106;-53
2022/06/01 10:54:06;;;;;;;10.98;2.53;;;;;;;;;;5052670;28;20017;-50
2022/06/01 10:56:34;;;;;;;11.05;2.60;;;;;;;;;;5051650;28;20035;-47
2022/06/01 10:59:07;;;;;;;9.60;2.08;;;;;;;;;;5051790;28;20441;-50
2022/06/01 11:01:47;;;;;;;12.65;2.42;;;;;;;;;;5050852;28;20088;-51
2022/06/01 11:04:46;;;;;;;9.63;2.10;;;;;;;;;;5053568;28;20031;-54
2022/06/01 11:07:13;;;;;;;12.85;2.55;;;;;;;;;;5008606;28;20033;-49
2022/06/01 11:09:43;;;;;;;11.75;2.83;;;;;;;;;;5051789;28;20025;-51
2022/06/01 11:12:17;;;;;;;10.82;2.22;;;;;;;;;;5052623;28;20737;-50
2022/06/01 11:15:00;;;;;;;8.15;2.47;;;;;;;;;;5051621;28;20060;-49
2022/06/01 11:17:27;;;;;;;14.00;2.60;;;;;;;;;;5051875;28;20024;-54
2022/06/01 11:20:03;;;;;;;10.70;2.10;;;;;;;;;;5052182;28;20017;-50
2022/06/01 11:22:47;;;;;;;8.80;2.22;;;;;;;;;;5051550;28;20087;-51
2022/06/01 11:25:23;;;;;;;15.55;2.35;;;;;;;;;;5051328;28;20901;-52
2022/06/01 11:28:09;;;;;;;10.32;2.28;;;;;;;;;;5052121;28;20384;-48
2022/06/01 11:30:36;;;;;;;9.27;2.58;;;;;;;;;;5051658;28;20721;-51
2022/06/01 11:33:09;;;;;;;13.60;2.92;;;;;;;;;;5051800;28;20021;-51
2022/06/01 11:35:49;;;;;;;9.57;2.47;;;;;;;;;;5051124;28;20386;-48
2022/06/01 11:38:22;;;;;;;14.52;2.88;;;;;;;;;;5041128;28;20025;-49
2022/06/01 11:40:51;;;;;;;11.77;2.83;;;;;;;;;;5029589;28;20041;-51
2022/06/01 11:43:21;;;;;;;11.55;2.38;;;;;;;;;;5031571;28;20112;-53
2022/06/01 11:45:56;;;;;;;17.90;3.17;;;;;;;;;;5012375;28;20026;-53
2022/06/01 11:48:37;;;;;;;25.20;3.13;;;;;;;;;;5015801;28;20132;-50
2022/06/01 11:51:11;;;;;;;12.50;2.42;;;;;;;;;;5011804;28;20435;-51
2022/06/01 11:53:55;;;;;;;12.55;3.10;;;;;;;;;;5011464;28;20018;-46
2022/06/01 11:56:35;;;;;;;10.98;2.75;;;;;;;;;;5010446;28;20054;-49
2022/06/01 11:59:05;;;;;;;20.33;2.95;;;;;;;;;;5010699;28;20034;-52
2022/06/01 12:01:32;;;;;;;11.80;2.78;;;;;;;;;;5011553;28;20128;-46
2022/06/01 12:04:11;;;;;;;20.70;3.40;;;;;;;;;;5011022;28;20033;-52
2022/06/01 12:06:45;;;;;;;10.48;3.00;;;;;;;;;;5010374;28;20058;-49
2022/06/01 12:09:32;;;;;;;11.27;3.03;;;;;;;;;;5011206;28;20038;-50
2022/06/01 12:12:00;;;;;;;17.08;3.00;;;;;;;;;;5010290;28;20028;-53
2022/06/01 12:14:32;;;;;;;14.65;2.80;;;;;;;;;;5011862;28;20509;-51
2022/06/01 12:17:34;;;;;;;11.27;2.97;;;;;;;;;;5009807;28;20029;-55
2022/06/01 12:20:13;;;;;;;14.02;2.88;;;;;;;;;;4948919;29;20596;-51
2022/06/01 12:28:45;;;;;;;12.75;3.00;;;;;;;;;;5009939;28;20091;-51
2022/06/01 12:31:35;;;;;;;13.40;2.88;;;;;;;;;;5011214;28;20041;-50
2022/06/01 12:34:03;;;;;;;14.43;2.60;;;;;;;;;;5003306;28;20092;-53
2022/06/01 12:36:35;;;;;;;14.40;3.00;;;;;;;;;;5008794;28;20038;-53
2022/06/01 12:39:05;;;;;;;13.52;2.95;;;;;;;;;;5009053;28;20114;-50
2022/06/01 12:41:35;;;;;;;10.35;2.65;;;;;;;;;;5010769;28;20033;-48
2022/06/01 12:44:04;;;;;;;11.85;2.75;;;;;;;;;;5011257;28;20514;-46
2022/06/01 12:46:39;;;;;;;12.88;2.92;;;;;;;;;;5010686;28;20080;-48
2022/06/01 12:49:24;;;;;;;12.98;2.83;;;;;;;;;;5014190;28;20069;-48
2022/06/01 12:51:52;;;;;;;11.60;3.17;;;;;;;;;;5013657;28;20030;-50
2022/06/01 12:54:30;;;;;;;12.57;2.88;;;;;;;;;;5014795;28;20026;-48
2022/06/01 12:56:57;;;;;;;8.70;2.30;;;;;;;;;;5014486;28;20033;-48
2022/06/01 12:59:24;;;;;;;8.88;2.55;;;;;;;;;;5014190;28;20038;-53
2022/06/01 13:01:53;;;;;;;15.82;3.03;;;;;;;;;;5018369;28;20049;-49
2022/06/01 13:04:24;;;;;;;7.80;2.60;;;;;;;;;;5020552;28;20387;-52
2022/06/01 13:06:52;;;;;;;11.00;3.08;;;;;;;;;;5016788;28;20113;-49
2022/06/01 13:09:29;;;;;;;12.43;2.53;;;;;;;;;;5014217;28;20369;-52
2022/06/01 13:11:58;;;;;;;6.47;2.38;;;;;;;;;;5019959;28;20120;-53
2022/06/01 13:14:26;;;;;;;13.32;2.95;;;;;;;;;;5030587;28;20027;-54
2022/06/01 13:16:53;;;;;;;9.18;2.80;;;;;;;;;;5033868;28;20025;-49
2022/06/01 13:19:27;;;;;;;5.75;2.30;;;;;;;;;;5033468;28;20088;-50
2022/06/01 13:21:57;;;;;;;6.07;2.30;;;;;;;;;;5032822;28;20041;-50
2022/06/01 13:24:25;;;;;;;11.70;3.05;;;;;;;;;;5033596;28;20043;-50
2022/06/01 13:26:54;;;;;;;16.60;2.83;;;;;;;;;;5030693;28;20030;-51
2022/06/01 13:29:24;;;;;;;9.27;2.20;;;;;;;;;;5019647;28;20041;-52
2022/06/01 13:31:52;;;;;;;12.13;2.72;;;;;;;;;;5020564;28;20048;-53
2022/06/01 13:34:23;;;;;;;8.18;2.60;;;;;;;;;;5024574;28;20033;-49
2022/06/01 13:36:51;;;;;;;10.75;2.90;;;;;;;;;;5021624;28;20025;-48
2022/06/01 13:39:27;;;;;;;7.95;2.72;;;;;;;;;;5019603;28;20075;-50
2022/06/01 13:41:56;;;;;;;9.05;2.50;;;;;;;;;;5032665;28;20037;-45
2022/06/01 13:44:41;;;;;;;19.75;3.17;;;;;;;;;;5031341;28;20739;-53
2022/06/01 13:47:08;;;;;;;9.88;3.38;;;;;;;;;;5020754;28;20642;-45
2022/06/01 13:49:35;;;;;;;7.00;2.65;;;;;;;;;;5019873;28;20144;-47
2022/06/01 13:52:04;;;;;;;13.07;2.70;;;;;;;;;;5011767;28;20503;-49
2022/06/01 13:54:34;;;;;;;7.22;2.85;;;;;;;;;;5011118;28;20033;-51
2022/06/01 13:57:21;;;;;;;9.98;3.08;;;;;;;;;;5015148;28;20395;-47
2022/06/01 13:59:53;;;;;;;12.80;3.00;;;;;;;;;;5012129;28;20093;-46
2022/06/01 14:02:28;;;;;;;9.52;2.95;;;;;;;;;;5018295;28;20440;-47
2022/06/01 14:05:13;;;;;;;11.98;2.88;;;;;;;;;;5019042;28;20105;-51
2022/06/01 14:08:03;;;;;;;8.82;3.08;;;;;;;;;;5011926;28;20057;-52
2022/06/01 14:10:32;;;;;;;6.38;2.35;;;;;;;;;;5004537;28;20078;-52
2022/06/01 14:12:59;;;;;;;10.68;3.25;;;;;;;;;;5022097;28;20025;-46
2022/06/01 14:15:26;;;;;;;11.43;2.72;;;;;;;;;;5028098;28;20372;-51
2022/06/01 14:17:53;;;;;;;14.35;3.28;;;;;;;;;;5026011;28;20625;-51
2022/06/01 14:20:20;;;;;;;11.75;2.60;;;;;;;;;;5031396;28;20034;-52
2022/06/01 14:22:47;;;;;;;10.70;3.00;;;;;;;;;;5030955;28;20568;-48
2022/06/01 14:30:44;;;;;;;12.48;2.42;;;;;;;;;;5027872;28;20037;-54
2022/06/01 14:33:12;;;;;;;9.80;2.63;;;;;;;;;;5031478;28;20027;-49
2022/06/01 14:35:39;;;;;;;9.20;2.67;;;;;;;;;;5031299;28;20438;-50
2022/06/01 14:38:06;;;;;;;10.80;2.60;;;;;;;;;;5031337;28;20049;-49
2022/06/01 14:40:34;;;;;;;14.75;3.10;;;;;;;;;;5030856;28;20427;-49
2022/06/01 14:43:04;;;;;;;5.72;2.50;;;;;;;;;;5023577;28;20033;-46
2022/06/01 14:45:31;;;;;;;7.60;2.45;;;;;;;;;;5017192;28;20030;-47
2022/06/01 14:47:58;;;;;;;12.93;2.78;;;;;;;;;;5014783;28;20079;-46
2022/06/01 14:50:25;;;;;;;11.70;2.42;;;;;;;;;;5021083;28;20056;-47
2022/06/01 14:52:52;;;;;;;7.55;2.35;;;;;;;;;;5019492;28;20460;-46
2022/06/01 14:55:19;;;;;;;9.63;2.33;;;;;;;;;;5020381;28;20030;-49
2022/06/01 14:57:46;;;;;;;10.20;3.00;;;;;;;;;;5019680;28;20036;-48
2022/06/01 15:00:13;;;;;;;13.60;2.83;;;;;;;;;;5016462;28;20050;-47
2022/06/01 15:02:45;;;;;;;9.93;2.35;;;;;;;;;;5010377;28;20542;-48
2022/06/01 15:05:12;;;;;;;11.68;2.67;;;;;;;;;;5011048;28;20036;-52
2022/06/01 15:07:39;;;;;;;9.82;2.33;;;;;;;;;;5010848;28;20061;-48
2022/06/01 15:10:06;;;;;;;12.70;2.80;;;;;;;;;;5013532;28;20072;-46
2022/06/01 15:12:33;;;;;;;10.13;2.75;;;;;;;;;;5010237;28;20381;-46
2022/06/01 15:15:00;;;;;;;11.40;2.60;;;;;;;;;;5011604;28;20052;-46
2022/06/01 15:17:28;;;;;;;10.43;2.63;;;;;;;;;;4993765;28;20064;-46
2022/06/01 15:19:55;;;;;;;9.45;2.58;;;;;;;;;;5010076;28;20403;-49
2022/06/01 15:22:22;;;;;;;8.48;2.33;;;;;;;;;;5013134;28;20026;-51
2022/06/01 15:24:50;;;;;;;11.05;2.92;;;;;;;;;;5011295;28;20033;-50